LFPTLFPM

Guest
Details From LFPT - Pontoise Cormeilles En Vexin
To LFPM - Melun Villaroche
Flight Number -
Tags generated
Created
Modified
Stats Distance 39 nm / 72 km
Max Altitude 0 ft / 0 m
Waypoints 3
Social Downloads 4
Likes 0
Share VATSIM

Download

Looking for another format? Having issues loading an existing format? Contact us
Advertisement - Login to hide

Notes

Basic altitude profile: - Ascent Rate: 2500ft/min - Ascent Speed: 250kts - Cruise Altitude: 35000ft - Cruise Speed: 120kts - Descent Rate: 1500ft/min - Descent Speed: 250kts Options: - Use NATs: no - Use PACOTS: no - Use low airways: yes - Use high airways: no

Route

LFPT PON LFPM

ID Type Via Altitude Latitude Longitude Leg Dist Tot Dist Heading (true) Name
O LFPT APT - 0 ft / 0 m 49.09579˚ 2.03558˚ - 0 nm - Pontoise Cormeilles En Vexin
PON VOR - 0 ft / 0 m 49.09608˚ 2.03589˚ 0 nm 0 nm 34° / 34° PONTOISE CORMEILLES EN VEXIN V
O LFPM APT - 0 ft / 0 m 48.60812˚ 2.67460˚ 38 nm 38 nm 139° / 140° Melun Villaroche

Altitude Profile

Advertisement - Login to hide

LFPT

Details ICAO LFPT (POX)
Name Pontoise Cormeilles En Vexin
Region France
Timezone Europe/Paris (UTC+1.0)
Stats Elevation 325 ft / 99 m (AMSL)
Location 49.095793° 2.035583°
Runways 2
Magnetic Variation 0.475° E

METAR

LFPT 161900Z AUTO 29005KT 9999 FEW040 SCT180 02/M00 Q1021

Decode

TAF

Not found

Departure Runways

ID Width Length Bearing (true) Bearing (mag) Surface Threshold Offset Overrun Length
05 164 ft / 50 m 5,535 ft / 1,687 m 44.55° 44.08° Asphalt 0 ft / 0 m 0 ft / 0 m
12 164 ft / 50 m 5,403 ft / 1,647 m 118.18° 117.71° Asphalt 197 ft / 60 m 0 ft / 0 m
23 164 ft / 50 m 5,535 ft / 1,687 m 224.57° 224.10° Asphalt 558 ft / 170 m 0 ft / 0 m
30 164 ft / 50 m 5,403 ft / 1,647 m 298.20° 297.73° Asphalt 584 ft / 178 m 0 ft / 0 m

LFPM

Details ICAO LFPM
Name Melun Villaroche
Region France
Timezone Europe/Paris (UTC+1.0)
Stats Elevation 302 ft / 92 m (AMSL)
Location 48.608124° 2.674603°
Runways 2
Magnetic Variation 0.701° E

METAR

LFPM 161900Z AUTO 22006KT CAVOK 00/M02 Q1021

Decode

TAF

Not found

Destination Runways

ID Width Length Bearing (true) Bearing (mag) Surface Threshold Offset Overrun Length
01 98 ft / 30 m 4,263 ft / 1,299 m 12.67° 11.97° Asphalt 0 ft / 0 m 656 ft / 200 m
10 148 ft / 45 m 6,455 ft / 1,968 m 103.53° 102.83° Asphalt 0 ft / 0 m 2,723 ft / 830 m
19 98 ft / 30 m 4,263 ft / 1,299 m 192.67° 191.97° Asphalt 0 ft / 0 m 2,034 ft / 620 m
28 148 ft / 45 m 6,455 ft / 1,968 m 283.55° 282.85° Asphalt 279 ft / 85 m 0 ft / 0 m

Approach Navaids

Runway Type Ident Frequency Range Bearing (true) Bearing (mag) Slope Elevation
28 Localiser MV 111.55 MHz 18 nm / 33 km 283.52° 282.82° - 302 ft / 92 m (AMSL)
28 Glidescope MV 111.55 MHz 10 nm / 19 km 283.54° 282.84° 3.00° 302 ft / 92 m (AMSL)
28 DME MV 111.55 MHz 18 nm / 33 km - - - 302 ft / 92 m (AMSL)

Popular Alternatives